createdAt,value
2023-05-09T00:00:37.826Z,22.41
2023-05-09T00:03:06.690Z,22.51
2023-05-09T00:05:35.056Z,22.20
2023-05-09T00:08:03.299Z,22.30
2023-05-09T00:10:31.830Z,22.36
2023-05-09T00:13:00.990Z,22.43
2023-05-09T00:15:31.973Z,22.44
2023-05-09T00:18:00.438Z,22.37
2023-05-09T00:20:28.961Z,21.99
2023-05-09T00:22:57.257Z,21.72
2023-05-09T00:25:26.786Z,22.09
2023-05-09T00:27:56.269Z,22.32
2023-05-09T00:30:24.549Z,22.35
2023-05-09T00:32:54.369Z,22.31
2023-05-09T00:35:22.781Z,22.16
2023-05-09T00:37:51.086Z,22.16
2023-05-09T00:40:19.353Z,22.09
2023-05-09T00:42:47.607Z,21.85
2023-05-09T00:45:16.038Z,21.91
2023-05-09T00:47:44.451Z,22.01
2023-05-09T00:50:14.961Z,21.97
2023-05-09T00:52:43.373Z,22.00
2023-05-09T00:55:11.853Z,21.94
2023-05-09T00:57:40.517Z,22.13
2023-05-09T01:00:13.333Z,22.20
2023-05-09T01:02:42.587Z,22.11
2023-05-09T01:05:11.219Z,22.13
2023-05-09T01:07:45.501Z,22.26
2023-05-09T01:10:20.300Z,22.26
2023-05-09T01:12:51.267Z,22.25
2023-05-09T01:15:24.894Z,22.40
2023-05-09T01:17:56.543Z,22.43
2023-05-09T01:20:33.817Z,22.31
2023-05-09T01:23:19.638Z,22.32
2023-05-09T01:25:57.581Z,22.39
2023-05-09T01:28:40.023Z,22.36
2023-05-09T01:31:10.088Z,22.32
2023-05-09T01:33:40.470Z,22.36
2023-05-09T01:36:13.052Z,22.34
2023-05-09T01:38:43.717Z,22.33
2023-05-09T01:41:12.231Z,22.26
2023-05-09T01:43:41.755Z,21.97
2023-05-09T01:46:11.973Z,21.80
2023-05-09T01:48:41.170Z,21.92
2023-05-09T01:51:10.727Z,21.97
2023-05-09T01:53:39.191Z,21.75
2023-05-09T01:56:09.448Z,21.63
2023-05-09T01:58:38.205Z,21.80
2023-05-09T02:01:07.291Z,21.86
2023-05-09T02:03:38.621Z,21.80
2023-05-09T02:06:07.457Z,21.83
2023-05-09T02:08:35.991Z,21.79
2023-05-09T02:11:04.475Z,21.24
2023-05-09T02:13:32.882Z,21.26
2023-05-09T02:16:01.972Z,20.87
2023-05-09T02:18:32.620Z,21.01
2023-05-09T02:21:02.439Z,20.96
2023-05-09T02:23:30.946Z,20.21
2023-05-09T02:26:00.462Z,21.08
2023-05-09T02:28:30.600Z,21.22
2023-05-09T02:31:00.580Z,21.25
2023-05-09T02:33:33.990Z,21.24
2023-05-09T02:36:05.055Z,21.28
2023-05-09T02:38:33.576Z,21.32
2023-05-09T02:41:01.909Z,21.03
2023-05-09T02:43:30.148Z,21.04
2023-05-09T02:45:58.483Z,20.86
2023-05-09T02:48:26.782Z,20.18
2023-05-09T02:50:59.188Z,20.50
2023-05-09T02:53:30.151Z,20.42
2023-05-09T02:55:59.809Z,20.61
2023-05-09T02:58:28.520Z,20.67
2023-05-09T03:00:56.788Z,20.67
2023-05-09T03:03:25.433Z,20.57
2023-05-09T03:05:53.818Z,20.40
2023-05-09T03:08:22.018Z,20.60
2023-05-09T03:10:51.642Z,20.28
2023-05-09T03:13:19.939Z,20.52
2023-05-09T03:15:48.334Z,20.81
2023-05-09T03:18:16.668Z,20.98
2023-05-09T03:20:44.938Z,20.89
2023-05-09T03:23:13.296Z,20.81
2023-05-09T03:25:41.537Z,20.80
2023-05-09T03:28:11.191Z,20.85
2023-05-09T03:30:39.461Z,20.88
2023-05-09T03:33:08.672Z,20.85
2023-05-09T03:35:36.977Z,20.69
2023-05-09T03:38:05.782Z,20.71
2023-05-09T03:40:34.013Z,20.69
2023-05-09T03:43:02.265Z,20.49
2023-05-09T03:45:31.901Z,20.40
2023-05-09T03:48:00.224Z,20.53
2023-05-09T03:50:28.642Z,20.33
2023-05-09T03:52:57.069Z,20.45
2023-05-09T03:55:25.373Z,20.53
2023-05-09T03:57:53.617Z,20.63
2023-05-09T04:00:22.531Z,20.47
2023-05-09T04:02:52.294Z,20.31
2023-05-09T04:05:21.045Z,20.11
2023-05-09T04:07:49.445Z,20.54
2023-05-09T04:10:17.708Z,20.55
2023-05-09T04:12:46.021Z,20.54
2023-05-09T04:15:14.519Z,20.73
2023-05-09T04:17:42.999Z,20.56
2023-05-09T04:20:13.724Z,20.94
2023-05-09T04:22:41.944Z,22.43
2023-05-09T04:25:13.681Z,23.29
2023-05-09T04:27:42.116Z,23.15
2023-05-09T04:30:11.387Z,22.12
2023-05-09T04:32:39.802Z,22.01
2023-05-09T04:35:09.210Z,21.95
2023-05-09T04:37:38.898Z,22.43
2023-05-09T04:40:09.101Z,23.27
2023-05-09T04:42:37.665Z,22.69
2023-05-09T04:45:07.317Z,22.92
2023-05-09T04:47:35.657Z,23.61
2023-05-09T04:50:04.150Z,24.63
2023-05-09T04:52:32.685Z,24.25
2023-05-09T04:55:02.370Z,23.50
2023-05-09T04:57:30.763Z,24.24
2023-05-09T04:59:59.106Z,24.48
2023-05-09T05:02:27.576Z,24.72
2023-05-09T05:05:17.522Z,24.73
2023-05-09T05:07:44.033Z,24.37
2023-05-09T05:10:13.649Z,24.43
2023-05-09T05:12:41.943Z,23.08
2023-05-09T05:15:11.152Z,23.82
2023-05-09T05:17:39.405Z,24.36
2023-05-09T05:20:10.648Z,23.48
2023-05-09T05:22:39.038Z,24.89
2023-05-09T05:25:08.526Z,24.05
2023-05-09T05:27:38.294Z,23.26
2023-05-09T05:30:07.693Z,24.52
2023-05-09T05:32:36.039Z,23.22
2023-05-09T05:35:04.997Z,24.70
2023-05-09T05:37:33.308Z,24.35
2023-05-09T05:40:01.573Z,23.68
2023-05-09T05:42:29.816Z,23.36
2023-05-09T05:45:04.276Z,23.67
2023-05-09T05:47:33.154Z,22.63
2023-05-09T05:50:02.996Z,22.62
2023-05-09T05:52:32.084Z,22.66
2023-05-09T05:55:00.383Z,21.74
2023-05-09T05:57:28.699Z,21.16
2023-05-09T05:59:57.017Z,21.06
2023-05-09T06:02:26.820Z,22.20
2023-05-09T06:04:59.125Z,20.85
2023-05-09T06:07:29.996Z,22.32
2023-05-09T06:09:58.436Z,21.76
2023-05-09T06:12:28.065Z,21.49
2023-05-09T06:14:57.868Z,21.51
2023-05-09T06:17:31.052Z,22.26
2023-05-09T06:19:59.351Z,23.02
2023-05-09T06:22:27.577Z,23.03
2023-05-09T06:24:55.801Z,23.16
2023-05-09T06:27:24.174Z,22.91
2023-05-09T06:29:52.782Z,22.96
2023-05-09T06:32:21.231Z,22.60
2023-05-09T06:34:51.112Z,22.21
2023-05-09T06:37:19.556Z,22.08
2023-05-09T06:39:47.848Z,22.27
2023-05-09T06:42:16.658Z,23.21
2023-05-09T06:44:44.959Z,23.48
2023-05-09T06:47:13.235Z,23.14
2023-05-09T06:49:41.501Z,22.64
2023-05-09T06:52:12.955Z,22.93
2023-05-09T06:54:52.012Z,23.69
2023-05-09T06:57:23.322Z,23.73
2023-05-09T06:59:51.639Z,23.65
2023-05-09T07:02:19.876Z,23.37
2023-05-09T07:04:48.402Z,23.91
2023-05-09T07:07:18.514Z,23.56
2023-05-09T07:09:46.861Z,23.71
2023-05-09T07:12:15.724Z,23.66
2023-05-09T07:14:43.999Z,23.45
2023-05-09T07:17:21.965Z,24.11
2023-05-09T07:19:51.551Z,23.74
2023-05-09T07:22:21.274Z,24.44
2023-05-09T07:24:50.844Z,24.52
2023-05-09T07:27:19.178Z,25.65
2023-05-09T07:29:49.097Z,25.89
2023-05-09T07:32:17.491Z,24.44
2023-05-09T07:34:45.954Z,25.36
2023-05-09T07:37:15.444Z,25.09
2023-05-09T07:39:47.514Z,25.48
2023-05-09T07:42:16.073Z,25.54
2023-05-09T07:44:44.340Z,25.67
2023-05-09T07:47:12.708Z,25.91
2023-05-09T07:49:43.238Z,25.19
2023-05-09T07:52:11.769Z,25.12
2023-05-09T07:54:40.677Z,25.23
2023-05-09T07:57:10.547Z,25.96
2023-05-09T07:59:38.953Z,25.39
2023-05-09T08:02:07.731Z,26.24
2023-05-09T08:04:37.734Z,26.74
2023-05-09T08:07:07.245Z,26.88
2023-05-09T08:09:35.704Z,27.05
2023-05-09T08:12:04.038Z,26.04
2023-05-09T08:14:33.684Z,26.00
2023-05-09T08:17:02.165Z,24.96
2023-05-09T08:19:30.433Z,25.63
2023-05-09T08:21:58.752Z,25.80
2023-05-09T08:24:27.030Z,25.85
2023-05-09T08:26:55.451Z,25.21
2023-05-09T08:29:23.680Z,26.00
2023-05-09T08:31:53.479Z,25.68
2023-05-09T08:34:21.949Z,26.37
2023-05-09T08:36:50.238Z,25.41
2023-05-09T08:39:19.183Z,26.50
2023-05-09T08:41:47.503Z,26.65
2023-05-09T08:44:15.939Z,26.77
2023-05-09T08:46:49.412Z,26.77
2023-05-09T08:49:19.489Z,26.12
2023-05-09T08:51:50.041Z,27.92
2023-05-09T08:54:19.593Z,27.97
2023-05-09T08:56:48.704Z,28.44
2023-05-09T08:59:18.549Z,27.55
2023-05-09T09:01:47.244Z,26.39
2023-05-09T09:04:15.746Z,27.75
2023-05-09T09:06:45.521Z,27.35
2023-05-09T09:09:15.019Z,28.11
2023-05-09T09:11:43.668Z,27.08
2023-05-09T09:14:14.023Z,27.09
2023-05-09T09:16:45.698Z,26.98
2023-05-09T09:19:18.758Z,27.53
2023-05-09T09:21:53.912Z,26.88
2023-05-09T09:24:27.230Z,26.56
2023-05-09T09:26:55.595Z,26.65
2023-05-09T09:29:24.622Z,27.70
2023-05-09T09:31:55.311Z,27.39
2023-05-09T09:34:24.600Z,28.14
2023-05-09T09:36:54.286Z,27.86
2023-05-09T09:39:23.140Z,28.92
2023-05-09T09:41:51.550Z,28.85
2023-05-09T09:44:21.077Z,28.20
2023-05-09T09:46:51.289Z,27.80
2023-05-09T09:49:21.305Z,27.31
2023-05-09T09:51:55.722Z,28.38
2023-05-09T09:54:27.198Z,28.02
2023-05-09T09:56:56.656Z,27.83
2023-05-09T09:59:26.059Z,28.38
2023-05-09T10:01:56.376Z,29.58
2023-05-09T10:04:25.195Z,28.68
2023-05-09T10:06:55.760Z,27.83
2023-05-09T10:09:24.720Z,27.88
2023-05-09T10:11:54.042Z,27.50
2023-05-09T10:14:23.473Z,28.40
2023-05-09T10:16:53.711Z,27.97
2023-05-09T10:19:23.303Z,29.55
2023-05-09T10:21:53.787Z,28.99
2023-05-09T10:24:28.953Z,27.76
2023-05-09T10:27:01.603Z,28.33
2023-05-09T10:29:31.935Z,29.27
2023-05-09T10:32:02.700Z,29.91
2023-05-09T10:34:33.114Z,28.72
2023-05-09T10:37:01.520Z,28.95
2023-05-09T10:39:31.933Z,28.02
2023-05-09T10:42:00.709Z,28.97
2023-05-09T10:44:29.458Z,28.70
2023-05-09T10:46:58.013Z,28.84
2023-05-09T10:49:26.790Z,28.39
2023-05-09T10:51:55.092Z,28.95
2023-05-09T10:54:33.473Z,29.08
2023-05-09T10:57:01.856Z,28.15
2023-05-09T10:59:37.890Z,29.00
2023-05-09T11:02:06.963Z,29.24
2023-05-09T11:04:35.368Z,29.55
2023-05-09T11:07:03.670Z,29.01
2023-05-09T11:09:35.662Z,29.62
2023-05-09T11:12:11.904Z,29.66
2023-05-09T11:14:42.939Z,30.26
2023-05-09T11:17:12.953Z,29.76
2023-05-09T11:20:01.632Z,29.53
2023-05-09T11:22:32.601Z,29.19
2023-05-09T11:25:07.255Z,29.74
2023-05-09T11:27:41.236Z,29.78
2023-05-09T11:30:11.057Z,30.17
2023-05-09T11:33:07.836Z,30.60
2023-05-09T11:35:39.432Z,29.84
2023-05-09T11:38:08.258Z,30.32
2023-05-09T11:40:38.336Z,29.87
2023-05-09T11:43:09.252Z,29.91
2023-05-09T11:45:37.637Z,30.61
2023-05-09T11:48:09.894Z,31.21
2023-05-09T11:50:38.258Z,30.38
2023-05-09T11:53:08.314Z,30.26
2023-05-09T11:55:39.096Z,30.27
2023-05-09T11:58:09.053Z,30.69
2023-05-09T12:00:37.513Z,29.46
2023-05-09T12:03:06.614Z,30.96
2023-05-09T12:05:35.098Z,32.58
2023-05-09T12:08:04.623Z,29.50
2023-05-09T12:10:33.254Z,30.82
2023-05-09T12:13:04.108Z,31.12
2023-05-09T12:15:37.781Z,31.87
2023-05-09T12:18:08.089Z,32.75
2023-05-09T12:20:43.730Z,31.19
2023-05-09T12:23:12.706Z,30.66
2023-05-09T12:25:41.157Z,31.17
2023-05-09T12:28:10.962Z,31.55
2023-05-09T12:30:39.260Z,31.33
2023-05-09T12:33:10.385Z,31.59
2023-05-09T12:35:39.453Z,32.61
2023-05-09T12:38:07.755Z,29.92
2023-05-09T12:40:36.037Z,32.30
2023-05-09T12:43:05.967Z,31.59
2023-05-09T12:45:35.803Z,32.23
2023-05-09T12:48:05.183Z,32.44
2023-05-09T12:50:35.848Z,31.62
2023-05-09T12:53:05.290Z,32.72
2023-05-09T12:55:40.254Z,30.98
2023-05-09T12:58:08.487Z,31.69
2023-05-09T13:00:45.222Z,31.74
2023-05-09T13:03:25.412Z,31.76
2023-05-09T13:06:00.198Z,31.95
2023-05-09T13:08:29.346Z,32.82
2023-05-09T13:11:11.849Z,31.26
2023-05-09T13:13:43.683Z,32.69
2023-05-09T13:16:15.052Z,32.08
2023-05-09T13:18:45.716Z,31.99
2023-05-09T13:21:13.943Z,31.82
2023-05-09T13:23:44.528Z,31.84
2023-05-09T13:26:12.902Z,32.25
2023-05-09T13:28:41.191Z,33.11
2023-05-09T13:31:09.603Z,31.48
2023-05-09T13:33:39.327Z,32.79
2023-05-09T13:36:08.078Z,33.15
2023-05-09T13:38:38.868Z,32.43
2023-05-09T13:41:07.387Z,32.33
2023-05-09T13:43:35.915Z,33.05
2023-05-09T13:46:04.505Z,31.31
2023-05-09T13:48:32.761Z,32.41
2023-05-09T13:51:07.630Z,32.82
2023-05-09T13:53:38.676Z,32.24
2023-05-09T13:56:09.497Z,32.68
2023-05-09T13:58:37.936Z,33.06
2023-05-09T14:01:07.644Z,32.49
2023-05-09T14:03:36.302Z,33.10
2023-05-09T14:06:06.253Z,31.62
2023-05-09T14:08:34.612Z,32.07
2023-05-09T14:11:04.304Z,32.91
2023-05-09T14:13:33.147Z,32.22
2023-05-09T14:16:01.803Z,32.59
2023-05-09T14:18:30.199Z,31.92
2023-05-09T14:20:58.630Z,33.40
2023-05-09T14:23:28.561Z,31.40
2023-05-09T14:25:59.751Z,32.71
2023-05-09T14:28:29.429Z,31.70
2023-05-09T14:30:58.344Z,33.21
2023-05-09T14:33:27.565Z,33.10
2023-05-09T14:35:56.492Z,32.29
2023-05-09T14:38:24.764Z,34.11
2023-05-09T14:40:54.438Z,32.81
2023-05-09T14:43:23.179Z,33.78
2023-05-09T14:45:53.150Z,33.53
2023-05-09T14:48:22.182Z,33.74
2023-05-09T14:50:53.537Z,32.37
2023-05-09T14:53:22.608Z,33.09
2023-05-09T14:55:50.905Z,31.76
2023-05-09T14:58:20.699Z,33.71
2023-05-09T15:00:49.256Z,31.73
2023-05-09T15:03:17.968Z,31.05
2023-05-09T15:05:46.438Z,32.31
2023-05-09T15:08:14.701Z,33.62
2023-05-09T15:10:48.469Z,32.95
2023-05-09T15:13:17.007Z,33.77
2023-05-09T15:15:47.294Z,33.89
2023-05-09T15:18:16.962Z,32.24
2023-05-09T15:20:45.424Z,33.87
2023-05-09T15:23:14.170Z,33.77
2023-05-09T15:25:43.745Z,32.37
2023-05-09T15:28:12.118Z,31.68
2023-05-09T15:30:41.542Z,31.72
2023-05-09T15:33:11.475Z,31.58
2023-05-09T15:35:40.029Z,32.90
2023-05-09T15:38:12.026Z,31.07
2023-05-09T15:40:41.305Z,31.01
2023-05-09T15:43:09.739Z,31.20
2023-05-09T15:45:38.865Z,32.82
2023-05-09T15:48:07.499Z,31.67
2023-05-09T15:50:38.436Z,31.35
2023-05-09T15:53:07.006Z,32.04
2023-05-09T15:55:35.484Z,32.19
2023-05-09T15:58:03.923Z,31.74
2023-05-09T16:00:32.276Z,32.57
2023-05-09T16:03:00.731Z,31.71
2023-05-09T16:05:29.178Z,31.41
2023-05-09T16:07:58.820Z,32.06
2023-05-09T16:10:27.281Z,32.39
2023-05-09T16:12:59.830Z,32.31
2023-05-09T16:15:28.238Z,33.45
2023-05-09T16:17:57.604Z,31.87
2023-05-09T16:20:26.261Z,30.96
2023-05-09T16:22:54.628Z,31.35
2023-05-09T16:25:35.304Z,30.30
2023-05-09T16:28:15.329Z,30.67
2023-05-09T16:30:44.416Z,30.17
2023-05-09T16:33:13.009Z,30.69
2023-05-09T16:35:46.087Z,30.92
2023-05-09T16:38:14.593Z,30.98
2023-05-09T16:40:44.333Z,31.36
2023-05-09T16:43:12.676Z,30.43
2023-05-09T16:45:56.387Z,30.42
2023-05-09T16:48:24.686Z,30.77
2023-05-09T16:50:53.703Z,30.84
2023-05-09T16:53:37.045Z,31.02
2023-05-09T16:56:07.938Z,30.07
2023-05-09T16:58:36.817Z,30.49
2023-05-09T17:01:05.702Z,30.55
2023-05-09T17:03:34.252Z,30.71
2023-05-09T17:06:02.470Z,30.36
2023-05-09T17:08:30.732Z,29.97
2023-05-09T17:10:59.079Z,30.85
2023-05-09T17:13:28.870Z,30.35
2023-05-09T17:15:57.535Z,30.08
2023-05-09T17:18:36.661Z,30.51
2023-05-09T17:21:06.595Z,29.85
2023-05-09T17:23:34.852Z,29.85
2023-05-09T17:26:03.797Z,29.96
2023-05-09T17:28:33.450Z,29.94
2023-05-09T17:31:03.333Z,29.24
2023-05-09T17:33:31.634Z,29.89
2023-05-09T17:36:00.527Z,28.90
2023-05-09T17:38:29.134Z,29.24
2023-05-09T17:40:57.440Z,28.83
2023-05-09T17:43:27.818Z,28.76
2023-05-09T17:45:57.205Z,28.87
2023-05-09T17:48:25.548Z,28.50
2023-05-09T17:50:54.431Z,28.53
2023-05-09T17:53:27.593Z,28.09
2023-05-09T17:55:56.076Z,27.97
2023-05-09T17:58:24.326Z,28.94
2023-05-09T18:00:53.960Z,28.92
2023-05-09T18:03:23.624Z,28.59
2023-05-09T18:05:51.985Z,28.27
2023-05-09T18:08:20.300Z,28.27
2023-05-09T18:10:49.090Z,27.69
2023-05-09T18:13:17.798Z,27.56
2023-05-09T18:15:46.333Z,27.52
2023-05-09T18:18:16.638Z,28.14
2023-05-09T18:20:47.816Z,27.45
2023-05-09T18:23:16.714Z,27.40
2023-05-09T18:25:44.950Z,28.14
2023-05-09T18:28:15.181Z,27.43
2023-05-09T18:30:44.355Z,28.39
2023-05-09T18:33:49.297Z,27.27
2023-05-09T18:36:31.830Z,28.08
2023-05-09T18:39:08.927Z,26.67
2023-05-09T18:41:37.317Z,26.62
2023-05-09T18:44:27.769Z,27.36
2023-05-09T18:46:59.089Z,28.35
2023-05-09T18:49:49.558Z,27.57
2023-05-09T18:52:20.571Z,27.65
2023-05-09T18:54:49.406Z,28.38
2023-05-09T18:57:19.217Z,27.69
2023-05-09T18:59:47.610Z,26.78
2023-05-09T19:02:15.916Z,27.78
2023-05-09T19:04:46.049Z,27.81
2023-05-09T19:07:15.088Z,27.44
2023-05-09T19:09:44.750Z,27.69
2023-05-09T19:12:13.069Z,26.70
2023-05-09T19:14:41.370Z,27.74
2023-05-09T19:17:10.844Z,27.99
2023-05-09T19:19:39.837Z,27.14
2023-05-09T19:22:08.794Z,27.29
2023-05-09T19:24:37.557Z,27.82
2023-05-09T19:27:07.902Z,26.94
2023-05-09T19:29:36.730Z,26.92
2023-05-09T19:32:07.784Z,26.73
2023-05-09T19:34:37.006Z,28.06
2023-05-09T19:37:05.958Z,27.01
2023-05-09T19:39:34.218Z,27.05
2023-05-09T19:42:02.861Z,27.42
2023-05-09T19:44:33.994Z,27.22
2023-05-09T19:47:05.460Z,26.53
2023-05-09T19:49:42.804Z,27.08
2023-05-09T19:52:13.951Z,26.75
2023-05-09T19:54:42.290Z,27.30
2023-05-09T19:57:10.663Z,27.62
2023-05-09T19:59:40.425Z,26.49
2023-05-09T20:02:09.627Z,27.16
2023-05-09T20:04:38.226Z,27.04
2023-05-09T20:07:06.579Z,26.81
2023-05-09T20:09:34.810Z,26.98
2023-05-09T20:12:03.756Z,26.88
2023-05-09T20:14:32.336Z,27.83
2023-05-09T20:17:01.992Z,27.29
2023-05-09T20:19:30.400Z,28.99
2023-05-09T20:21:58.652Z,28.49
2023-05-09T20:24:26.954Z,28.37
2023-05-09T20:26:55.628Z,28.36
2023-05-09T20:29:25.104Z,28.37
2023-05-09T20:31:53.471Z,28.51
2023-05-09T20:34:24.608Z,28.25
2023-05-09T20:36:53.857Z,27.15
2023-05-09T20:39:23.050Z,27.53
2023-05-09T20:41:52.389Z,26.93
2023-05-09T20:44:20.781Z,26.77
2023-05-09T20:46:49.283Z,27.00
2023-05-09T20:49:17.501Z,26.53
2023-05-09T20:51:47.129Z,27.03
2023-05-09T20:54:15.427Z,28.06
2023-05-09T20:56:43.724Z,27.41
2023-05-09T20:59:12.034Z,27.57
2023-05-09T21:01:40.621Z,28.04
2023-05-09T21:04:09.556Z,28.24
2023-05-09T21:06:37.933Z,28.34
2023-05-09T21:09:08.967Z,27.92
2023-05-09T21:11:38.340Z,29.00
2023-05-09T21:14:07.025Z,27.34
2023-05-09T21:16:35.627Z,27.34
2023-05-09T21:19:05.248Z,26.03
2023-05-09T21:21:34.104Z,27.41
2023-05-09T21:24:04.242Z,27.19
2023-05-09T21:26:33.882Z,26.50
2023-05-09T21:29:02.415Z,27.12
2023-05-09T21:31:31.347Z,28.35
2023-05-09T21:34:00.125Z,28.53
2023-05-09T21:36:28.422Z,28.02
2023-05-09T21:38:56.946Z,27.88
2023-05-09T21:41:25.202Z,28.54
2023-05-09T21:43:54.876Z,28.50
2023-05-09T21:46:23.207Z,28.85
2023-05-09T21:48:51.573Z,28.83
2023-05-09T21:51:20.285Z,27.98
2023-05-09T21:53:48.539Z,28.16
2023-05-09T21:56:16.834Z,28.16
2023-05-09T21:58:45.091Z,26.61
2023-05-09T22:01:16.476Z,25.23
2023-05-09T22:03:44.896Z,25.66
2023-05-09T22:06:13.514Z,25.82
2023-05-09T22:08:41.811Z,24.96
2023-05-09T22:11:10.950Z,25.87
2023-05-09T22:13:40.240Z,25.67
2023-05-09T22:16:08.903Z,25.28
2023-05-09T22:18:38.575Z,25.27
2023-05-09T22:21:07.062Z,24.76
2023-05-09T22:23:35.634Z,24.91
2023-05-09T22:26:03.882Z,24.09
2023-05-09T22:28:32.145Z,24.60
2023-05-09T22:31:00.375Z,24.69
2023-05-09T22:33:29.222Z,23.89
2023-05-09T22:35:58.802Z,23.76
2023-05-09T22:38:27.204Z,24.10
2023-05-09T22:40:55.445Z,23.63
2023-05-09T22:43:25.424Z,23.91
2023-05-09T22:45:56.981Z,24.08
2023-05-09T22:48:25.269Z,24.05
2023-05-09T22:50:53.657Z,24.07
2023-05-09T22:53:23.366Z,24.67
2023-05-09T22:55:52.561Z,25.40
2023-05-09T22:58:20.780Z,25.82
2023-05-09T23:00:49.048Z,25.15
2023-05-09T23:03:32.281Z,25.50
2023-05-09T23:06:00.830Z,25.60
2023-05-09T23:08:30.481Z,25.77
2023-05-09T23:10:58.764Z,25.73
2023-05-09T23:13:27.118Z,25.94
2023-05-09T23:15:55.477Z,25.81
2023-05-09T23:18:23.873Z,25.55
2023-05-09T23:20:52.230Z,24.64
2023-05-09T23:23:20.541Z,24.65
2023-05-09T23:25:50.177Z,24.66
2023-05-09T23:28:20.164Z,24.53
2023-05-09T23:30:48.445Z,24.05
2023-05-09T23:33:16.792Z,23.95
2023-05-09T23:35:45.032Z,23.85
2023-05-09T23:38:13.336Z,23.73
2023-05-09T23:40:41.615Z,23.63
2023-05-09T23:43:11.220Z,23.72
2023-05-09T23:45:41.049Z,23.13
2023-05-09T23:48:09.594Z,23.33
2023-05-09T23:50:45.550Z,23.10
2023-05-09T23:53:15.318Z,23.42
2023-05-09T23:55:43.624Z,23.61
2023-05-09T23:58:13.451Z,23.82
